Time;durP1;ratioP1;P1;durP2;ratioP2;P2;SDS_P1;SDS_P2;PMS_P1;PMS_P2;Temp;Humidity;BMP_temperature;BMP_pressure;BME280_temperature;BME280_humidity;BME280_pressure;Samples;Min_cycle;Max_cycle;Signal;HPM_P1;HPM_P2
2021/11/26 00:01:39;;;;;;;25.93;11.07;;;;;;;4.03;91.73;100484.66;4972609;28;20568;-75
2021/11/26 00:04:05;;;;;;;27.70;11.03;;;;;;;4.06;91.79;100479.72;4972631;28;20204;-75
2021/11/26 00:06:31;;;;;;;23.90;11.77;;;;;;;4.03;91.67;100487.19;4973483;28;20216;-74
2021/11/26 00:08:59;;;;;;;23.90;12.10;;;;;;;4.03;91.34;100482.13;4972841;28;20188;-75
2021/11/26 00:11:25;;;;;;;24.00;11.40;;;;;;;4.00;91.37;100478.59;4971328;28;20577;-75
2021/11/26 00:15:03;;;;;;;27.03;12.70;;;;;;;4.00;91.81;100476.91;4971917;28;20192;-75
2021/11/26 00:16:47;;;;;;;25.47;12.40;;;;;;;4.00;91.42;100478.59;4963263;28;20208;-76
2021/11/26 00:19:13;;;;;;;30.47;14.93;;;;;;;3.98;91.54;100472.59;4971236;28;20196;-76
2021/11/26 00:21:42;;;;;;;29.87;14.33;;;;;;;3.96;91.81;100467.47;4972006;28;20703;-75
2021/11/26 00:24:08;;;;;;;30.43;14.90;;;;;;;3.95;91.59;100462.38;4971712;28;20424;-75
2021/11/26 00:26:35;;;;;;;28.97;15.83;;;;;;;3.96;92.35;100459.03;4970701;28;20236;-75
2021/11/26 00:29:01;;;;;;;32.30;16.63;;;;;;;3.95;92.15;100459.84;4972515;28;20198;-73
2021/11/26 00:31:27;;;;;;;31.63;15.60;;;;;;;3.96;92.19;100459.03;4971959;28;20188;-75
2021/11/26 00:33:52;;;;;;;28.17;16.20;;;;;;;3.98;92.54;100460.81;4953030;29;20181;-75
2021/11/26 00:36:18;;;;;;;31.97;15.10;;;;;;;4.01;92.39;100463.44;4967280;28;20177;-75
2021/11/26 00:38:43;;;;;;;28.03;14.67;;;;;;;4.00;92.08;100459.19;4970537;28;20620;-75
2021/11/26 00:41:09;;;;;;;27.90;13.63;;;;;;;4.05;91.60;100460.22;4970769;28;20293;-75
2021/11/26 00:43:34;;;;;;;31.23;13.47;;;;;;;4.08;92.20;100452.75;4971429;28;20271;-74
2021/11/26 00:46:00;;;;;;;27.40;14.57;;;;;;;4.09;91.57;100458.69;4954731;28;20224;-74
2021/11/26 00:48:25;;;;;;;29.73;14.07;;;;;;;4.09;92.28;100457.00;4971925;28;20184;-74
2021/11/26 00:50:51;;;;;;;31.73;14.67;;;;;;;4.09;91.72;100446.88;4972212;28;20220;-75
2021/11/26 00:53:17;;;;;;;27.93;14.43;;;;;;;4.07;91.78;100447.63;4972435;28;20188;-75
2021/11/26 00:55:42;;;;;;;27.23;14.37;;;;;;;4.08;91.65;100440.09;4972210;28;20180;-75
2021/11/26 00:58:08;;;;;;;25.00;14.00;;;;;;;4.06;91.74;100436.66;4971570;28;20339;-75
2021/11/26 01:00:35;;;;;;;28.83;15.10;;;;;;;4.07;91.92;100440.91;4970676;28;20204;-75
2021/11/26 01:03:01;;;;;;;28.10;15.60;;;;;;;4.04;91.33;100433.19;4986723;28;20185;-75
2021/11/26 01:05:27;;;;;;;32.90;15.30;;;;;;;4.05;91.54;100432.38;4970622;28;20220;-75
2021/11/26 01:07:52;;;;;;;29.43;14.80;;;;;;;4.04;91.94;100437.38;4971494;28;20188;-74
2021/11/26 01:10:20;;;;;;;25.67;14.53;;;;;;;4.02;91.97;100431.41;4970633;28;20196;-75
2021/11/26 01:12:46;;;;;;;29.10;15.37;;;;;;;4.00;92.00;100421.19;4971050;28;20209;-75
2021/11/26 01:15:15;;;;;;;25.53;14.57;;;;;;;4.02;91.71;100423.81;4972150;28;20214;-74
2021/11/26 01:17:41;;;;;;;26.97;14.63;;;;;;;4.01;91.50;100425.47;4971925;28;20188;-76
2021/11/26 01:20:10;;;;;;;26.80;14.87;;;;;;;4.01;91.91;100422.09;4971249;28;20219;-75
2021/11/26 01:22:36;;;;;;;27.50;14.20;;;;;;;4.00;91.74;100425.44;4972186;28;20192;-75
2021/11/26 01:25:04;;;;;;;31.73;14.60;;;;;;;4.00;92.05;100415.28;4971548;28;20216;-75
2021/11/26 01:27:29;;;;;;;29.07;14.77;;;;;;;4.00;92.15;100415.28;4972079;28;20665;-74
2021/11/26 01:29:55;;;;;;;23.77;14.23;;;;;;;3.99;92.18;100404.28;4970118;28;20219;-74
2021/11/26 01:32:21;;;;;;;29.03;15.47;;;;;;;3.97;91.97;100400.84;4971410;28;20188;-75
2021/11/26 01:34:46;;;;;;;28.07;14.20;;;;;;;3.99;92.13;100401.75;4971557;28;20199;-75
2021/11/26 01:37:11;;;;;;;27.23;14.77;;;;;;;4.00;91.92;100397.56;4970642;28;20239;-75
2021/11/26 01:39:37;;;;;;;27.73;14.90;;;;;;;3.99;92.15;100386.56;4970765;28;20565;-75
2021/11/26 01:42:03;;;;;;;25.10;14.53;;;;;;;4.00;91.96;100382.38;4970890;28;20199;-75
2021/11/26 01:44:28;;;;;;;28.13;13.53;;;;;;;3.96;91.85;100383.91;4970473;28;20180;-75
2021/11/26 01:46:54;;;;;;;23.17;14.03;;;;;;;3.99;92.32;100378.97;4969671;28;20630;-75
2021/11/26 01:49:19;;;;;;;26.37;13.87;;;;;;;4.00;92.33;100373.09;4969703;28;20663;-75
2021/11/26 01:51:45;;;;;;;26.17;13.73;;;;;;;3.98;92.23;100364.59;4971458;28;20239;-74
2021/11/26 01:54:11;;;;;;;24.80;12.43;;;;;;;3.99;91.93;100366.31;4971696;28;20193;-75
2021/11/26 01:56:36;;;;;;;21.67;13.33;;;;;;;4.01;92.50;100359.59;4971929;28;20192;-74
2021/11/26 01:59:03;;;;;;;27.00;13.10;;;;;;;4.03;92.23;100359.69;4971009;28;20196;-74
2021/11/26 02:01:28;;;;;;;26.63;13.87;;;;;;;4.03;91.85;100359.69;4969614;28;20189;-74
2021/11/26 02:03:54;;;;;;;25.93;13.47;;;;;;;4.01;91.99;100352.00;4969851;28;20176;-74
2021/11/26 02:06:20;;;;;;;25.63;13.87;;;;;;;4.00;92.24;100345.22;4970701;28;20297;-76
2021/11/26 02:08:48;;;;;;;26.10;15.77;;;;;;;3.98;92.33;100343.44;4970282;28;20695;-75
2021/11/26 02:11:13;;;;;;;32.97;15.57;;;;;;;3.95;92.78;100349.25;4969656;28;20620;-75
2021/11/26 02:13:39;;;;;;;29.50;14.00;;;;;;;4.00;92.60;100344.38;4970736;28;20192;-75
2021/11/26 02:16:04;;;;;;;33.00;15.23;;;;;;;3.97;92.13;100336.66;4968871;28;20665;-76
2021/11/26 02:18:31;;;;;;;24.23;13.90;;;;;;;4.00;92.98;100334.25;4969195;28;20184;-75
2021/11/26 02:20:57;;;;;;;30.90;14.87;;;;;;;3.97;92.62;100335.00;4971531;28;20224;-76
2021/11/26 02:23:22;;;;;;;30.90;16.33;;;;;;;3.95;92.96;100331.53;4970483;28;20196;-76
2021/11/26 02:25:48;;;;;;;31.50;15.70;;;;;;;3.95;92.68;100330.69;4969079;28;20216;-75
2021/11/26 02:28:15;;;;;;;30.80;16.53;;;;;;;3.97;92.63;100329.06;4970623;28;20191;-75
2021/11/26 02:30:42;;;;;;;28.67;16.70;;;;;;;3.95;92.98;100333.22;4949406;29;20239;-75
2021/11/26 02:33:14;;;;;;;32.73;16.97;;;;;;;3.96;92.93;100323.13;4950245;29;20651;-76
2021/11/26 02:35:41;;;;;;;33.03;19.43;;;;;;;3.94;93.47;100317.16;4956622;28;20181;-75
2021/11/26 02:38:09;;;;;;;37.57;20.93;;;;;;;3.94;93.27;100314.63;4968098;28;20192;-75
2021/11/26 02:40:37;;;;;;;34.67;21.27;;;;;;;3.92;92.92;100312.84;4969101;28;20208;-75
2021/11/26 02:43:03;;;;;;;38.63;22.17;;;;;;;3.90;92.84;100316.97;4968876;28;20191;-75
2021/11/26 02:45:30;;;;;;;35.90;22.03;;;;;;;3.87;93.50;100299.16;4970056;28;20589;-75
2021/11/26 02:47:56;;;;;;;41.60;23.33;;;;;;;3.85;92.93;100309.22;4970527;28;20281;-75
2021/11/26 02:50:24;;;;;;;39.93;22.97;;;;;;;3.86;93.23;100298.28;4975986;28;20311;-76
2021/11/26 02:52:49;;;;;;;41.37;24.73;;;;;;;3.82;93.41;100304.03;4975602;28;20184;-75
2021/11/26 02:55:19;;;;;;;42.27;24.37;;;;;;;3.82;93.48;100296.44;4976658;28;20191;-75
2021/11/26 02:57:45;;;;;;;44.80;23.13;;;;;;;3.84;93.24;100286.38;4975401;28;20188;-75
2021/11/26 03:00:14;;;;;;;46.50;25.07;;;;;;;3.81;93.30;100282.06;4976208;28;20208;-75
2021/11/26 03:02:40;;;;;;;41.97;23.63;;;;;;;3.80;92.93;100274.41;4976859;28;20554;-73
2021/11/26 03:05:06;;;;;;;42.10;24.90;;;;;;;3.78;93.67;100274.34;4975509;28;20215;-74
2021/11/26 03:07:32;;;;;;;39.07;21.73;;;;;;;3.74;92.91;100270.00;4976935;28;20234;-74
2021/11/26 03:09:58;;;;;;;41.73;23.80;;;;;;;3.74;93.41;100259.00;4976225;28;20203;-74
2021/11/26 03:12:24;;;;;;;39.17;22.27;;;;;;;3.74;92.59;100251.41;4976188;28;20681;-74
2021/11/26 03:14:49;;;;;;;35.80;22.63;;;;;;;3.73;93.08;100249.69;4976971;28;20195;-74
2021/11/26 03:17:15;;;;;;;35.97;21.20;;;;;;;3.69;92.91;100248.69;4974716;28;20192;-75
2021/11/26 03:19:41;;;;;;;38.17;22.10;;;;;;;3.69;92.82;100252.91;4975831;28;20222;-74
2021/11/26 03:22:07;;;;;;;38.57;20.17;;;;;;;3.69;92.88;100245.31;4976408;28;20184;-75
2021/11/26 03:24:33;;;;;;;32.03;20.20;;;;;;;3.68;93.00;100243.59;4976575;28;20665;-74
2021/11/26 03:26:59;;;;;;;38.40;21.83;;;;;;;3.65;92.80;100239.28;4976430;28;20283;-75
2021/11/26 03:29:24;;;;;;;34.00;20.20;;;;;;;3.66;92.57;100240.13;4976089;28;20225;-74
2021/11/26 03:31:50;;;;;;;37.37;21.20;;;;;;;3.65;92.60;100236.75;4975983;28;20187;-75
2021/11/26 03:34:16;;;;;;;34.57;20.50;;;;;;;3.64;93.30;100231.63;4976589;28;20658;-75
2021/11/26 03:36:42;;;;;;;31.67;19.73;;;;;;;3.66;93.13;100230.00;4976394;28;20216;-75
2021/11/26 03:39:07;;;;;;;32.13;20.30;;;;;;;3.65;92.97;100224.09;4974683;28;20284;-75
2021/11/26 03:41:33;;;;;;;39.67;20.33;;;;;;;3.64;92.56;100224.03;4974947;28;20691;-74
2021/11/26 03:43:58;;;;;;;35.13;19.83;;;;;;;3.66;92.85;100219.88;4976379;28;20191;-75
2021/11/26 03:46:24;;;;;;;35.37;21.13;;;;;;;3.63;92.73;100219.78;4975689;28;20212;-74
2021/11/26 03:48:50;;;;;;;35.73;19.20;;;;;;;3.64;92.78;100221.50;4975753;28;20188;-75
2021/11/26 03:51:16;;;;;;;36.43;20.07;;;;;;;3.63;92.80;100209.66;4974462;28;20214;-74
2021/11/26 03:53:41;;;;;;;35.13;20.37;;;;;;;3.62;92.93;100215.50;4976402;28;20180;-75
2021/11/26 03:56:07;;;;;;;36.03;20.90;;;;;;;3.62;93.16;100213.84;4974992;28;20716;-74
2021/11/26 03:58:32;;;;;;;44.13;22.20;;;;;;;3.60;93.49;100210.44;4975733;28;20934;-75
2021/11/26 04:00:58;;;;;;;42.77;21.70;;;;;;;3.59;92.88;100205.31;4973366;28;20279;-75
2021/11/26 04:03:24;;;;;;;43.03;22.73;;;;;;;3.61;92.86;100208.72;4973821;28;20181;-76
2021/11/26 04:05:49;;;;;;;42.37;23.20;;;;;;;3.58;93.04;100198.53;4971970;28;20247;-74
2021/11/26 04:08:16;;;;;;;46.13;23.03;;;;;;;3.56;93.51;100198.47;4971954;28;20189;-74
2021/11/26 04:10:41;;;;;;;42.63;22.77;;;;;;;3.59;93.21;100190.97;4968996;28;20208;-75
2021/11/26 04:13:09;;;;;;;46.70;25.37;;;;;;;3.59;93.02;100190.97;4962814;28;20192;-75
2021/11/26 04:15:38;;;;;;;49.13;25.00;;;;;;;3.56;93.30;100180.75;4973289;28;20177;-75
2021/11/26 04:18:07;;;;;;;46.60;26.23;;;;;;;3.56;93.52;100178.22;4970200;28;20246;-74
2021/11/26 04:20:33;;;;;;;46.37;26.37;;;;;;;3.57;93.23;100176.53;4972744;28;20224;-75
2021/11/26 04:23:00;;;;;;;48.40;25.57;;;;;;;3.56;92.93;100169.75;4973014;28;20195;-75
2021/11/26 04:25:26;;;;;;;50.33;26.37;;;;;;;3.57;93.12;100159.69;4971518;28;20213;-76
2021/11/26 04:27:51;;;;;;;56.53;27.13;;;;;;;3.57;93.48;100154.63;4955579;28;20191;-73
2021/11/26 04:30:20;;;;;;;48.40;27.03;;;;;;;3.56;93.00;100152.91;4972898;28;20723;-76
2021/11/26 04:32:47;;;;;;;48.60;26.80;;;;;;;3.56;93.32;100145.31;4972877;28;20731;-74
2021/11/26 04:35:12;;;;;;;53.13;27.10;;;;;;;3.54;93.68;100143.53;4972788;28;20196;-74
2021/11/26 04:37:39;;;;;;;53.40;29.33;;;;;;;3.55;93.69;100143.56;4972656;28;20196;-74
2021/11/26 04:40:08;;;;;;;54.23;29.27;;;;;;;3.53;93.15;100139.25;4971933;28;20287;-76
2021/11/26 04:42:35;;;;;;;56.03;27.83;;;;;;;3.53;93.22;100135.06;4972504;28;20196;-74
2021/11/26 04:45:01;;;;;;;54.73;27.07;;;;;;;3.55;93.27;100130.06;4971242;28;20212;-74
2021/11/26 04:47:26;;;;;;;56.87;28.13;;;;;;;3.53;93.57;100132.53;4972536;28;20690;-76
2021/11/26 04:49:52;;;;;;;56.03;28.73;;;;;;;3.53;93.66;100124.09;4970760;28;20204;-73
2021/11/26 04:52:18;;;;;;;54.93;28.40;;;;;;;3.51;93.08;100121.53;4972397;28;20189;-76
2021/11/26 04:54:44;;;;;;;60.33;29.40;;;;;;;3.54;93.44;100121.59;4972344;28;20191;-76
2021/11/26 04:57:10;;;;;;;54.97;28.57;;;;;;;3.53;93.71;100117.38;4971001;28;20188;-76
2021/11/26 04:59:35;;;;;;;53.43;28.33;;;;;;;3.53;93.50;100119.91;4972149;28;20211;-76
2021/11/26 05:02:01;;;;;;;55.00;29.50;;;;;;;3.56;93.32;100116.59;4972411;28;20724;-75
2021/11/26 05:04:26;;;;;;;60.53;29.60;;;;;;;3.53;93.58;100117.38;4970803;28;20196;-75
2021/11/26 05:06:52;;;;;;;56.37;29.33;;;;;;;3.52;93.73;100113.13;4970688;28;20223;-76
2021/11/26 05:09:17;;;;;;;56.43;29.90;;;;;;;3.54;93.23;100108.97;4970492;28;20693;-76
2021/11/26 05:11:44;;;;;;;55.43;29.60;;;;;;;3.58;93.43;100107.41;4971864;28;20217;-76
2021/11/26 05:14:09;;;;;;;57.87;29.97;;;;;;;3.58;93.57;100098.13;4952900;28;20193;-75
2021/11/26 05:16:36;;;;;;;59.73;30.53;;;;;;;3.60;93.68;100090.59;4952867;28;20185;-75
2021/11/26 05:19:01;;;;;;;57.80;30.03;;;;;;;3.61;93.27;100090.66;4951065;29;20200;-75
2021/11/26 05:21:27;;;;;;;55.83;28.63;;;;;;;3.60;93.47;100088.94;4952532;28;20192;-75
2021/11/26 05:23:54;;;;;;;54.93;28.53;;;;;;;3.62;93.68;100082.25;4951414;29;20193;-75
2021/11/26 05:26:20;;;;;;;64.27;30.60;;;;;;;3.63;93.64;100083.97;4952677;28;20303;-76
2021/11/26 05:28:46;;;;;;;59.80;30.13;;;;;;;3.64;93.86;100082.31;4952492;29;20567;-75
2021/11/26 05:31:11;;;;;;;59.97;30.70;;;;;;;3.63;93.71;100075.53;4952459;28;20283;-75
2021/11/26 05:33:37;;;;;;;63.67;29.23;;;;;;;3.64;93.55;100079.78;4951078;29;20240;-75
2021/11/26 05:36:03;;;;;;;59.90;30.67;;;;;;;3.66;93.79;100073.09;4952437;28;20268;-75
2021/11/26 05:38:28;;;;;;;57.67;29.50;;;;;;;3.66;93.91;100065.50;4952147;28;20185;-76
2021/11/26 05:40:54;;;;;;;64.27;30.50;;;;;;;3.67;93.52;100068.09;4953212;29;20234;-75
2021/11/26 05:43:19;;;;;;;62.67;31.03;;;;;;;3.69;93.65;100063.09;4953632;28;20181;-75
2021/11/26 05:45:46;;;;;;;58.73;28.90;;;;;;;3.69;93.68;100061.38;4952404;28;20213;-75
2021/11/26 05:48:12;;;;;;;61.97;30.17;;;;;;;3.70;94.02;100062.25;4950641;29;20235;-75
2021/11/26 05:50:38;;;;;;;61.13;30.20;;;;;;;3.74;93.74;100066.63;4951921;29;20216;-75
2021/11/26 05:53:04;;;;;;;56.27;27.33;;;;;;;3.73;93.65;100058.16;4952039;28;20193;-76
2021/11/26 05:55:31;;;;;;;57.10;27.50;;;;;;;3.77;93.71;100056.63;4952010;28;20181;-75
2021/11/26 05:57:58;;;;;;;53.40;27.00;;;;;;;3.76;93.97;100050.69;4951037;29;20204;-75
2021/11/26 06:00:26;;;;;;;52.43;26.50;;;;;;;3.77;93.81;100049.84;4952007;28;20289;-75
2021/11/26 06:02:52;;;;;;;56.93;26.93;;;;;;;3.79;93.55;100043.19;4951908;28;20185;-75
2021/11/26 06:05:18;;;;;;;54.97;25.97;;;;;;;3.79;93.86;100044.84;4950325;29;20225;-75
2021/11/26 06:07:43;;;;;;;56.03;27.43;;;;;;;3.79;94.28;100037.25;4951839;28;20177;-75
2021/11/26 06:10:11;;;;;;;55.23;25.80;;;;;;;3.81;94.06;100031.44;4950116;29;20807;-76
2021/11/26 06:12:42;;;;;;;52.23;26.20;;;;;;;3.81;93.87;100031.44;4957286;28;20189;-75
2021/11/26 06:15:09;;;;;;;53.80;26.90;;;;;;;3.83;94.09;100027.31;4969868;28;20267;-75
2021/11/26 06:17:35;;;;;;;50.70;24.97;;;;;;;3.82;94.12;100022.19;4970898;28;20279;-75
2021/11/26 06:20:01;;;;;;;57.87;26.43;;;;;;;3.82;94.55;100023.03;4969919;28;20302;-75
2021/11/26 06:22:28;;;;;;;55.00;26.13;;;;;;;3.84;94.02;100020.53;4971021;28;20196;-75
2021/11/26 06:24:53;;;;;;;50.67;24.93;;;;;;;3.86;94.37;100016.41;4969983;28;20193;-76
2021/11/26 06:27:19;;;;;;;54.20;24.30;;;;;;;3.87;94.67;100010.53;4969495;28;20299;-75
2021/11/26 06:29:45;;;;;;;57.87;24.47;;;;;;;3.88;94.33;100009.72;4970676;28;20215;-74
2021/11/26 06:32:10;;;;;;;52.47;23.30;;;;;;;3.90;94.44;100011.47;4969272;28;20590;-74
2021/11/26 06:34:36;;;;;;;45.67;23.53;;;;;;;3.90;94.45;100003.88;4972933;28;20232;-74
2021/11/26 06:37:02;;;;;;;49.43;25.47;;;;;;;3.92;94.58;100007.31;4986819;28;20207;-75
2021/11/26 06:39:27;;;;;;;48.17;23.13;;;;;;;3.95;94.24;100012.47;4941843;28;20224;-73
2021/11/26 06:41:53;;;;;;;47.07;23.23;;;;;;;3.95;94.10;100006.56;4952048;28;20276;-75
2021/11/26 06:44:19;;;;;;;53.43;23.70;;;;;;;3.94;94.38;100002.31;4967354;28;20185;-75
2021/11/26 06:46:44;;;;;;;53.20;25.33;;;;;;;3.94;94.45;99993.03;4968558;28;20544;-75
2021/11/26 06:49:10;;;;;;;63.50;25.67;;;;;;;3.96;94.97;100001.53;4968603;28;20192;-76
2021/11/26 06:51:35;;;;;;;58.67;24.37;;;;;;;3.96;94.94;99998.16;4969855;28;20184;-74
2021/11/26 06:54:01;;;;;;;51.70;24.07;;;;;;;3.95;94.57;99992.22;4953020;28;20769;-73
2021/11/26 06:56:27;;;;;;;53.60;24.57;;;;;;;3.97;95.00;99995.69;4969078;28;20196;-75
2021/11/26 06:58:55;;;;;;;49.57;23.77;;;;;;;3.97;94.94;99983.03;4953083;28;20302;-74
2021/11/26 07:01:21;;;;;;;51.33;23.07;;;;;;;3.98;94.83;99996.53;4950561;28;20205;-74
2021/11/26 07:03:46;;;;;;;48.30;22.83;;;;;;;4.00;94.82;99995.75;4950092;28;20588;-73
2021/11/26 07:06:12;;;;;;;57.67;25.40;;;;;;;4.00;95.03;99990.69;4950995;28;20240;-76
2021/11/26 07:08:37;;;;;;;57.57;23.17;;;;;;;4.01;94.91;99983.97;4949324;29;20193;-74
2021/11/26 07:11:03;;;;;;;54.90;23.23;;;;;;;4.02;94.99;99978.09;4949289;28;20229;-75
2021/11/26 07:13:30;;;;;;;52.87;23.67;;;;;;;4.01;95.29;99977.22;4958201;28;20188;-72
2021/11/26 07:15:55;;;;;;;49.77;23.07;;;;;;;4.03;95.05;99970.53;4969990;28;20191;-76
2021/11/26 07:18:21;;;;;;;51.50;22.63;;;;;;;4.04;95.15;99974.78;4968575;28;20594;-72
2021/11/26 07:20:46;;;;;;;51.60;23.37;;;;;;;4.06;95.04;99974.84;4952115;28;20235;-73
2021/11/26 07:23:12;;;;;;;49.70;23.00;;;;;;;4.06;95.46;99965.59;4968887;28;20188;-72
2021/11/26 07:25:38;;;;;;;49.43;22.63;;;;;;;4.09;94.97;99973.25;4969955;28;20212;-74
2021/11/26 07:28:03;;;;;;;48.00;22.20;;;;;;;4.11;95.04;99971.66;4970170;28;20192;-75
2021/11/26 07:30:30;;;;;;;48.23;22.47;;;;;;;4.11;95.01;99973.31;4969634;28;20288;-72
2021/11/26 07:32:55;;;;;;;48.63;21.93;;;;;;;4.12;95.46;99959.81;4977541;28;20616;-72
2021/11/26 07:35:21;;;;;;;50.83;21.40;;;;;;;4.12;94.67;99963.22;4969211;28;20258;-74
2021/11/26 07:37:47;;;;;;;44.90;22.10;;;;;;;4.14;94.67;99960.75;4972720;28;20193;-73
2021/11/26 07:40:12;;;;;;;47.20;23.00;;;;;;;4.13;94.99;99966.59;4973615;28;20196;-73
2021/11/26 07:42:42;;;;;;;49.60;22.00;;;;;;;4.15;94.80;99962.47;4972053;28;20570;-75
2021/11/26 07:45:11;;;;;;;45.83;21.97;;;;;;;4.15;95.11;99960.75;4971981;28;20315;-75
2021/11/26 07:47:39;;;;;;;46.93;22.50;;;;;;;4.19;95.35;99951.59;4982890;28;20201;-74
2021/11/26 07:50:07;;;;;;;44.27;21.93;;;;;;;4.21;94.80;99955.03;4956945;28;20204;-75
2021/11/26 07:52:33;;;;;;;46.93;22.23;;;;;;;4.22;94.33;99950.03;4972590;28;20204;-73
2021/11/26 07:54:59;;;;;;;42.63;21.10;;;;;;;4.24;95.13;99948.38;4972227;28;20195;-76
2021/11/26 07:57:24;;;;;;;42.20;20.00;;;;;;;4.25;94.51;99945.06;4972176;28;20330;-74
2021/11/26 07:59:50;;;;;;;45.20;21.53;;;;;;;4.27;95.02;99943.41;4972717;28;20308;-75
2021/11/26 08:02:15;;;;;;;40.47;20.43;;;;;;;4.28;94.53;99940.06;4973414;28;20276;-74
2021/11/26 08:04:41;;;;;;;41.20;20.03;;;;;;;4.30;94.46;99937.56;4973239;28;20204;-75
2021/11/26 08:07:07;;;;;;;42.33;20.53;;;;;;;4.31;94.92;99935.09;4971571;28;20216;-75
2021/11/26 08:09:33;;;;;;;48.10;20.77;;;;;;;4.30;95.21;99923.25;4971273;28;20578;-75
2021/11/26 08:11:59;;;;;;;41.30;21.43;;;;;;;4.32;94.50;99923.28;4972830;28;20290;-75
2021/11/26 08:14:25;;;;;;;43.40;20.33;;;;;;;4.36;94.84;99920.88;4972958;28;20188;-75
2021/11/26 08:16:54;;;;;;;35.67;19.67;;;;;;;4.38;95.10;99910.78;4972832;28;20196;-75
2021/11/26 08:19:20;;;;;;;40.93;19.97;;;;;;;4.40;94.94;99904.06;4972427;28;20757;-73
2021/11/26 08:21:47;;;;;;;44.03;21.87;;;;;;;4.39;94.85;99903.25;4972706;28;20192;-75
2021/11/26 08:24:13;;;;;;;42.23;19.90;;;;;;;4.57;94.94;99907.94;4972810;28;20602;-74
2021/11/26 08:26:40;;;;;;;41.63;20.33;;;;;;;4.61;95.12;99897.94;4971463;28;20234;-74
2021/11/26 08:29:06;;;;;;;45.83;21.07;;;;;;;4.65;95.35;99899.72;4972438;28;20324;-74
2021/11/26 08:31:32;;;;;;;44.53;20.73;;;;;;;4.56;94.70;99896.94;4954902;28;20187;-75
2021/11/26 08:33:58;;;;;;;36.93;18.80;;;;;;;4.53;94.69;99886.75;4970790;28;20275;-75
2021/11/26 08:36:24;;;;;;;42.90;21.00;;;;;;;4.49;95.02;99879.00;4971023;28;20185;-75
2021/11/26 08:38:51;;;;;;;46.10;19.17;;;;;;;4.55;95.32;99881.72;4972249;28;20181;-74
2021/11/26 08:41:16;;;;;;;43.47;18.70;;;;;;;4.55;95.08;99885.09;4970706;28;20229;-75
2021/11/26 08:43:43;;;;;;;42.53;18.67;;;;;;;4.58;95.12;99874.19;4972417;28;20173;-75
2021/11/26 08:46:09;;;;;;;37.63;19.07;;;;;;;4.57;94.58;99877.53;4970780;28;20254;-75
2021/11/26 08:48:34;;;;;;;33.97;18.03;;;;;;;4.56;95.07;99878.38;4970596;28;20200;-74
2021/11/26 08:51:00;;;;;;;35.47;18.37;;;;;;;4.58;94.66;99877.59;4972081;28;20291;-74
2021/11/26 08:53:26;;;;;;;36.17;17.17;;;;;;;4.64;94.45;99875.22;4970938;28;20192;-75
2021/11/26 08:55:54;;;;;;;28.87;15.93;;;;;;;4.62;94.13;99863.31;4970887;28;20701;-75
2021/11/26 08:58:23;;;;;;;30.20;15.87;;;;;;;4.64;94.23;99859.13;4979563;28;20606;-75
2021/11/26 09:00:48;;;;;;;30.47;15.67;;;;;;;4.63;93.77;99865.91;4990206;28;20200;-74
2021/11/26 09:03:15;;;;;;;28.50;15.10;;;;;;;4.63;93.80;99865.03;4991606;28;20710;-74
2021/11/26 09:05:42;;;;;;;30.40;14.93;;;;;;;4.65;93.60;99863.41;4991406;28;20215;-74
2021/11/26 09:08:14;;;;;;;31.40;14.77;;;;;;;4.66;93.37;99867.66;4991230;28;20546;-75
2021/11/26 09:10:41;;;;;;;27.37;15.10;;;;;;;4.66;93.19;99867.66;4989909;28;20731;-74
2021/11/26 09:13:08;;;;;;;28.20;15.10;;;;;;;4.68;93.13;99859.25;4989967;28;20188;-75
2021/11/26 09:15:35;;;;;;;25.77;15.10;;;;;;;4.69;93.13;99860.97;4973723;28;20220;-74
2021/11/26 09:18:00;;;;;;;29.50;14.70;;;;;;;4.70;93.63;99855.09;4971384;28;20239;-76
2021/11/26 09:20:27;;;;;;;26.20;13.63;;;;;;;4.71;93.37;99850.88;4971508;28;20666;-76
2021/11/26 09:22:53;;;;;;;28.47;14.83;;;;;;;4.71;93.33;99843.28;4972044;28;20185;-75
2021/11/26 09:25:19;;;;;;;26.83;13.50;;;;;;;4.72;92.99;99840.78;4971296;28;20220;-76
2021/11/26 09:27:45;;;;;;;28.70;15.23;;;;;;;4.75;92.71;99837.47;4968764;28;20203;-76
2021/11/26 09:30:16;;;;;;;27.17;16.00;;;;;;;4.74;92.71;99826.47;4970243;28;20223;-73
2021/11/26 09:32:41;;;;;;;31.20;15.27;;;;;;;4.77;92.28;99828.22;4969593;28;20684;-73
2021/11/26 09:35:08;;;;;;;24.77;13.53;;;;;;;4.77;92.98;99826.53;4970118;28;20188;-75
2021/11/26 09:37:34;;;;;;;28.67;14.13;;;;;;;4.79;92.76;99824.91;4970701;28;20291;-76
2021/11/26 09:39:59;;;;;;;26.73;14.70;;;;;;;4.79;92.45;99817.28;4969940;28;20320;-75
2021/11/26 09:42:25;;;;;;;29.60;14.70;;;;;;;4.82;92.88;99816.50;4971470;28;20204;-75
2021/11/26 09:44:54;;;;;;;32.73;15.93;;;;;;;4.84;92.85;99809.81;4947186;28;20560;-72
2021/11/26 09:47:20;;;;;;;29.30;14.27;;;;;;;4.84;92.18;99808.13;4942026;28;20202;-74
2021/11/26 09:49:45;;;;;;;26.97;15.20;;;;;;;4.87;92.63;99812.41;4969364;28;20208;-76
2021/11/26 09:52:11;;;;;;;30.03;14.50;;;;;;;4.86;92.90;99814.09;4977236;28;20680;-75
2021/11/26 09:54:42;;;;;;;30.27;14.67;;;;;;;4.91;92.30;99804.94;4988628;28;20262;-74
2021/11/26 09:57:09;;;;;;;26.20;14.57;;;;;;;4.92;92.29;99803.25;4980471;28;20180;-74
2021/11/26 09:59:37;;;;;;;32.47;15.20;;;;;;;4.92;92.54;99798.19;4968798;28;20208;-75
2021/11/26 10:02:08;;;;;;;29.27;14.40;;;;;;;4.92;92.92;99791.41;4974903;28;20195;-76
2021/11/26 10:04:34;;;;;;;30.07;15.60;;;;;;;4.94;92.89;99788.94;4988456;28;20180;-75
2021/11/26 10:07:04;;;;;;;31.07;15.37;;;;;;;4.95;92.49;99785.56;4989418;28;20707;-75
2021/11/26 10:09:36;;;;;;;35.93;16.23;;;;;;;4.95;93.00;99786.44;4989539;28;20210;-76
2021/11/26 10:12:20;;;;;;;31.13;15.27;;;;;;;4.95;92.74;99773.75;4989341;28;20263;-75
2021/11/26 10:14:47;;;;;;;30.63;15.17;;;;;;;5.00;93.02;99763.72;4961869;28;20208;-73
2021/11/26 10:17:16;;;;;;;30.27;15.30;;;;;;;5.02;93.44;99759.53;4970149;28;20662;-76
2021/11/26 10:19:48;;;;;;;31.17;14.87;;;;;;;4.99;92.83;99759.47;4968943;28;20642;-75
2021/11/26 10:22:19;;;;;;;33.47;15.20;;;;;;;4.98;93.14;99758.59;4967789;28;20238;-76
2021/11/26 10:25:01;;;;;;;32.77;15.37;;;;;;;4.94;93.38;99755.97;4950687;28;20201;-75
2021/11/26 10:27:34;;;;;;;28.80;14.43;;;;;;;4.98;92.90;99748.44;4950825;28;20925;-74
2021/11/26 10:30:30;;;;;;;34.43;16.00;;;;;;;4.96;93.02;99739.97;4949083;28;20209;-75
2021/11/26 10:32:58;;;;;;;28.27;15.47;;;;;;;4.99;92.94;99734.97;4941556;29;20215;-75
2021/11/26 10:35:26;;;;;;;34.90;15.80;;;;;;;5.03;93.57;99728.28;4966503;28;20220;-75
2021/11/26 10:38:08;;;;;;;35.97;15.80;;;;;;;5.03;92.80;99729.16;4971660;28;20282;-75
2021/11/26 10:40:37;;;;;;;32.90;15.23;;;;;;;5.05;93.15;99724.09;4953616;28;20548;-75
2021/11/26 10:43:06;;;;;;;33.33;15.93;;;;;;;5.09;92.92;99723.34;4968417;28;20194;-73
2021/11/26 10:56:53;;;;;;;39.23;17.13;;;;;;;5.11;92.83;99691.28;4969660;28;20247;-75
2021/11/26 10:59:31;;;;;;;39.20;17.23;;;;;;;5.09;92.97;99676.00;4967934;28;20346;-75
2021/11/26 11:01:57;;;;;;;39.80;19.13;;;;;;;5.12;92.80;99671.00;4973478;28;20188;-74
2021/11/26 11:04:24;;;;;;;44.93;19.67;;;;;;;5.14;92.55;99669.34;4986965;28;20275;-74
2021/11/26 11:07:00;;;;;;;39.00;19.00;;;;;;;5.13;92.16;99670.19;4971501;28;20269;-75
2021/11/26 11:09:37;;;;;;;45.17;19.83;;;;;;;5.18;92.19;99661.00;4987686;28;20234;-72
2021/11/26 11:12:03;;;;;;;44.20;19.93;;;;;;;5.21;92.38;99660.19;4991562;28;20941;-75
2021/11/26 11:14:28;;;;;;;42.53;20.30;;;;;;;5.23;92.20;99651.78;4985163;28;20185;-76
2021/11/26 11:16:56;;;;;;;50.47;21.07;;;;;;;5.27;91.88;99645.97;4972584;28;20731;-75
2021/11/26 11:19:23;;;;;;;49.03;21.80;;;;;;;5.31;92.36;99650.28;4955567;28;20211;-73
2021/11/26 11:21:52;;;;;;;43.03;21.67;;;;;;;5.44;92.01;99636.16;4976388;28;20187;-74
2021/11/26 11:24:19;;;;;;;49.03;22.13;;;;;;;5.60;91.51;99639.00;4992256;28;20671;-73
2021/11/26 11:26:48;;;;;;;48.97;22.43;;;;;;;5.61;91.01;99625.50;4993113;28;20253;-75
2021/11/26 11:29:31;;;;;;;44.33;21.20;;;;;;;5.56;91.11;99618.59;4959537;28;20185;-76